Details From SPLO - ILO
To SPJL - JULIACA
Flight Number -
Tags generated
Created
Modified
Stats Distance 150 nm / 278 km
Max Altitude 0 ft / 0 m
Waypoints 2
Social Downloads 0
Likes 0
Share VATSIM

Download

Looking for another format? Having issues loading an existing format? Contact us
Advertisement - Login to hide

Notes

Basic altitude profile: - Ascent Rate: 2500ft/min - Ascent Speed: 250kts - Cruise Altitude: 35000ft - Cruise Speed: 420kts - Descent Rate: 1500ft/min - Descent Speed: 250kts Options: - Use NATs: no - Use PACOTS: no - Use low airways: no - Use high airways: no

Route

SPLO SPJL

ID Type Via Altitude Latitude Longitude Leg Dist Tot Dist Heading (true) Name
O SPLO APT - 0 ft / 0 m -17.69504˚ -71.34396˚ - 0 nm - ILO
O SPJL APT - 0 ft / 0 m -15.46710˚ -70.15817˚ 150 nm 150 nm 27° / 27° JULIACA

Altitude Profile

Advertisement - Login to hide

SPLO

Details ICAO SPLO
Name ILO
Region Peru
Timezone America/Lima (UTC-5.0)
Stats Elevation 72 ft / 22 m (AMSL)
Location -17.695035° -71.343964°
Runways 1
Magnetic Variation 4.911° W

METAR

Not found

TAF

TAF SPLO 271120Z 2712/2812 16006KT 9999 BKN030 TX24/2719Z TN20/2810Z FM271600 14009KT CAVOK FM280000 16006KT 9999 OVC030

Decode

Departure Runways

ID Width Length Bearing (true) Bearing (mag) Surface Threshold Offset Overrun Length
12 148 ft / 45 m 8,244 ft / 2,513 m 114.89° 119.80° Asphalt 0 ft / 0 m 490 ft / 149 m
30 148 ft / 45 m 8,244 ft / 2,513 m 294.89° 299.80° Asphalt 0 ft / 0 m 530 ft / 162 m

SPJL

Details ICAO SPJL (JUL)
Name JULIACA
Region Peru
Timezone America/Lima (UTC-5.0)
Stats Elevation 12,552 ft / 3,826 m (AMSL)
Location -15.467104° -70.158169°
Runways 1
Magnetic Variation 6.609° W

METAR

SPJL 272100Z 11010KT CAVOK 15/01 Q1032 RMK PP000

Decode

TAF

TAF SPJL 271650Z 2718/2818 35005KT CAVOK TX17/2719Z TNM03/2810Z FM272100 11008KT CAVOK FM280100 28003KT CAVOK

Decode

Destination Runways

ID Width Length Bearing (true) Bearing (mag) Surface Threshold Offset Overrun Length
12 150 ft / 46 m 13,782 ft / 4,201 m 112.07° 118.68° Asphalt 0 ft / 0 m 200 ft / 61 m
30 150 ft / 46 m 13,782 ft / 4,201 m 292.06° 298.67° Asphalt 0 ft / 0 m 200 ft / 61 m